createdAt,value
2023-05-01T00:00:18.400Z,11.64
2023-05-01T00:02:45.348Z,11.77
2023-05-01T00:05:12.439Z,11.79
2023-05-01T00:07:39.223Z,11.67
2023-05-01T00:10:07.319Z,11.57
2023-05-01T00:12:34.162Z,11.63
2023-05-01T00:15:00.921Z,11.61
2023-05-01T00:17:28.312Z,11.61
2023-05-01T00:19:55.842Z,11.48
2023-05-01T00:22:22.763Z,11.49
2023-05-01T00:24:50.220Z,11.71
2023-05-01T00:27:17.273Z,11.86
2023-05-01T00:29:43.998Z,11.78
2023-05-01T00:32:10.802Z,11.65
2023-05-01T00:34:37.680Z,11.54
2023-05-01T00:37:04.427Z,11.72
2023-05-01T00:39:31.391Z,11.54
2023-05-01T00:41:58.176Z,11.53
2023-05-01T00:44:24.899Z,11.57
2023-05-01T00:46:51.900Z,11.74
2023-05-01T00:49:18.928Z,11.95
2023-05-01T00:51:49.632Z,12.07
2023-05-01T00:54:17.630Z,12.14
2023-05-01T00:56:44.368Z,12.06
2023-05-01T00:59:11.169Z,11.91
2023-05-01T01:01:38.171Z,12.10
2023-05-01T01:04:05.311Z,12.08
2023-05-01T01:07:03.058Z,11.82
2023-05-01T01:10:05.672Z,11.46
2023-05-01T01:12:39.518Z,11.46
2023-05-01T01:15:30.373Z,11.49
2023-05-01T01:18:09.815Z,11.82
2023-05-01T01:20:38.054Z,11.53
2023-05-01T01:23:49.815Z,11.44
2023-05-01T01:26:39.597Z,11.43
2023-05-01T01:29:51.541Z,11.30
2023-05-01T01:32:42.476Z,11.14
2023-05-01T01:35:17.238Z,11.15
2023-05-01T01:38:32.647Z,11.09
2023-05-01T01:41:07.528Z,10.85
2023-05-01T01:43:40.670Z,10.88
2023-05-01T01:46:10.713Z,10.92
2023-05-01T01:48:42.947Z,11.20
2023-05-01T01:51:14.662Z,11.24
2023-05-01T01:53:43.655Z,11.18
2023-05-01T01:56:10.908Z,11.21
2023-05-01T01:58:40.703Z,11.13
2023-05-01T02:01:08.402Z,11.16
2023-05-01T02:03:37.920Z,11.11
2023-05-01T02:06:06.799Z,11.06
2023-05-01T02:08:36.501Z,10.98
2023-05-01T02:11:05.188Z,10.79
2023-05-01T02:13:34.017Z,10.68
2023-05-01T02:16:04.170Z,10.58
2023-05-01T02:18:31.883Z,10.71
2023-05-01T02:21:00.890Z,10.87
2023-05-01T02:23:28.735Z,10.92
2023-05-01T02:25:57.925Z,11.06
2023-05-01T02:28:27.316Z,11.11
2023-05-01T02:30:54.243Z,11.19
2023-05-01T02:33:21.022Z,11.33
2023-05-01T02:35:47.806Z,11.27
2023-05-01T02:38:16.441Z,10.99
2023-05-01T02:40:49.230Z,10.75
2023-05-01T02:43:20.262Z,10.57
2023-05-01T02:45:48.237Z,10.66
2023-05-01T02:48:20.637Z,10.77
2023-05-01T02:50:49.476Z,10.86
2023-05-01T02:53:16.668Z,10.49
2023-05-01T02:55:43.678Z,10.26
2023-05-01T02:58:16.028Z,10.29
2023-05-01T03:00:43.473Z,9.86
2023-05-01T03:03:10.920Z,9.96
2023-05-01T03:05:38.989Z,9.98
2023-05-01T03:08:06.445Z,10.00
2023-05-01T03:10:33.626Z,9.73
2023-05-01T03:13:01.260Z,9.77
2023-05-01T03:15:28.395Z,9.54
2023-05-01T03:17:55.160Z,9.58
2023-05-01T03:20:22.002Z,9.64
2023-05-01T03:22:48.685Z,9.28
2023-05-01T03:25:15.910Z,9.00
2023-05-01T03:27:42.705Z,8.98
2023-05-01T03:30:10.357Z,9.04
2023-05-01T03:32:37.248Z,9.08
2023-05-01T03:35:04.204Z,9.07
2023-05-01T03:37:31.285Z,9.15
2023-05-01T03:39:58.124Z,9.27
2023-05-01T03:42:25.078Z,9.47
2023-05-01T03:44:51.813Z,9.40
2023-05-01T03:47:19.478Z,9.62
2023-05-01T03:49:46.308Z,9.82
2023-05-01T03:52:13.471Z,10.04
2023-05-01T03:54:40.203Z,10.06
2023-05-01T03:57:07.328Z,10.13
2023-05-01T03:59:34.278Z,10.21
2023-05-01T04:02:00.965Z,10.39
2023-05-01T04:04:29.757Z,10.43
2023-05-01T04:06:57.072Z,10.46
2023-05-01T04:09:23.806Z,10.48
2023-05-01T04:11:50.534Z,10.66
2023-05-01T04:14:17.175Z,10.84
2023-05-01T04:16:43.937Z,10.96
2023-05-01T04:19:10.803Z,11.20
2023-05-01T04:21:37.545Z,11.25
2023-05-01T04:24:04.520Z,11.34
2023-05-01T04:26:31.301Z,11.52
2023-05-01T04:28:58.088Z,11.56
2023-05-01T04:31:24.831Z,11.43
2023-05-01T04:33:51.888Z,11.22
2023-05-01T04:36:18.667Z,11.23
2023-05-01T04:38:45.338Z,11.23
2023-05-01T04:41:12.051Z,11.24
2023-05-01T04:43:38.970Z,11.40
2023-05-01T04:46:05.840Z,11.48
2023-05-01T04:48:32.595Z,11.77
2023-05-01T04:50:59.323Z,11.67
2023-05-01T04:53:26.036Z,11.82
2023-05-01T04:55:53.050Z,11.93
2023-05-01T04:58:19.741Z,12.06
2023-05-01T05:00:46.382Z,12.18
2023-05-01T05:03:13.171Z,12.31
2023-05-01T05:05:40.124Z,12.48
2023-05-01T05:08:07.560Z,12.67
2023-05-01T05:10:34.341Z,12.81
2023-05-01T05:13:01.175Z,13.13
2023-05-01T05:15:27.937Z,13.34
2023-05-01T05:17:56.486Z,13.45
2023-05-01T05:20:23.508Z,13.65
2023-05-01T05:22:50.193Z,13.72
2023-05-01T05:25:17.141Z,13.80
2023-05-01T05:27:43.849Z,14.06
2023-05-01T05:30:11.385Z,14.11
2023-05-01T05:32:38.180Z,14.08
2023-05-01T05:35:05.689Z,14.15
2023-05-01T05:37:32.460Z,14.19
2023-05-01T05:39:59.183Z,14.13
2023-05-01T05:42:25.859Z,14.34
2023-05-01T05:44:53.151Z,14.53
2023-05-01T05:47:19.850Z,14.57
2023-05-01T05:49:46.771Z,14.42
2023-05-01T05:52:13.839Z,14.58
2023-05-01T05:54:40.936Z,14.69
2023-05-01T05:57:07.675Z,15.00
2023-05-01T05:59:34.383Z,15.33
2023-05-01T06:02:01.313Z,15.34
2023-05-01T06:04:28.026Z,15.43
2023-05-01T06:06:55.226Z,15.35
2023-05-01T06:09:22.078Z,15.71
2023-05-01T06:11:49.240Z,16.02
2023-05-01T06:14:16.991Z,16.04
2023-05-01T06:16:43.792Z,15.75
2023-05-01T06:19:12.299Z,16.44
2023-05-01T06:21:39.130Z,16.08
2023-05-01T06:24:06.547Z,16.37
2023-05-01T06:26:33.270Z,16.79
2023-05-01T06:29:00.063Z,16.98
2023-05-01T06:31:27.224Z,17.35
2023-05-01T06:33:54.527Z,17.60
2023-05-01T06:36:21.217Z,17.69
2023-05-01T06:38:49.445Z,17.55
2023-05-01T06:41:16.583Z,17.29
2023-05-01T06:43:43.342Z,17.66
2023-05-01T06:46:10.177Z,17.53
2023-05-01T06:48:37.105Z,17.56
2023-05-01T06:51:03.880Z,17.91
2023-05-01T06:53:30.798Z,17.93
2023-05-01T06:55:57.970Z,18.41
2023-05-01T06:58:24.811Z,17.72
2023-05-01T07:00:52.758Z,17.82
2023-05-01T07:03:19.938Z,17.99
2023-05-01T07:05:46.676Z,17.86
2023-05-01T07:08:14.458Z,18.49
2023-05-01T07:10:42.330Z,18.36
2023-05-01T07:13:09.808Z,18.28
2023-05-01T07:15:36.773Z,17.72
2023-05-01T07:18:06.005Z,17.01
2023-05-01T07:20:34.758Z,17.11
2023-05-01T07:23:01.825Z,17.13
2023-05-01T07:25:28.598Z,17.22
2023-05-01T07:27:55.491Z,16.94
2023-05-01T07:30:22.352Z,16.96
2023-05-01T07:32:49.137Z,17.03
2023-05-01T07:35:15.959Z,16.85
2023-05-01T07:37:42.622Z,16.99
2023-05-01T07:40:09.667Z,17.21
2023-05-01T07:42:36.628Z,17.69
2023-05-01T07:45:03.711Z,18.32
2023-05-01T07:47:30.815Z,18.70
2023-05-01T07:49:57.884Z,19.20
2023-05-01T07:52:24.859Z,18.96
2023-05-01T07:54:51.725Z,19.40
2023-05-01T07:57:19.053Z,19.88
2023-05-01T07:59:45.861Z,20.23
2023-05-01T08:02:14.013Z,20.19
2023-05-01T08:04:41.924Z,20.05
2023-05-01T08:07:08.971Z,20.16
2023-05-01T08:09:35.857Z,20.25
2023-05-01T08:12:04.115Z,19.90
2023-05-01T08:14:31.057Z,19.82
2023-05-01T08:16:57.908Z,19.46
2023-05-01T08:19:24.811Z,20.44
2023-05-01T08:21:51.594Z,20.05
2023-05-01T08:24:18.390Z,20.25
2023-05-01T08:26:45.167Z,20.45
2023-05-01T08:29:12.222Z,20.30
2023-05-01T08:31:39.543Z,20.29
2023-05-01T08:34:06.498Z,20.09
2023-05-01T08:36:33.245Z,20.73
2023-05-01T08:41:54.185Z,20.96
2023-05-01T08:44:21.148Z,20.60
2023-05-01T08:46:49.719Z,20.70
2023-05-01T08:49:17.586Z,20.59
2023-05-01T08:51:50.838Z,21.07
2023-05-01T08:54:19.906Z,21.28
2023-05-01T08:56:51.801Z,21.16
2023-05-01T08:59:19.571Z,21.16
2023-05-01T09:01:47.504Z,21.50
2023-05-01T09:04:16.558Z,21.98
2023-05-01T09:06:45.101Z,22.10
2023-05-01T09:09:12.096Z,21.98
2023-05-01T09:11:39.671Z,21.61
2023-05-01T09:14:08.607Z,21.26
2023-05-01T09:16:35.696Z,21.42
2023-05-01T09:19:02.504Z,21.68
2023-05-01T09:21:31.752Z,21.69
2023-05-01T09:23:58.551Z,21.42
2023-05-01T09:26:26.822Z,21.59
2023-05-01T09:28:58.112Z,22.00
2023-05-01T09:31:30.441Z,21.90
2023-05-01T09:34:02.265Z,21.77
2023-05-01T09:39:28.486Z,21.92
2023-05-01T09:41:55.942Z,21.58
2023-05-01T09:44:22.783Z,21.88
2023-05-01T09:46:49.713Z,21.87
2023-05-01T09:49:16.385Z,21.85
2023-05-01T09:51:43.412Z,22.38
2023-05-01T09:54:19.609Z,22.10
2023-05-01T09:56:48.358Z,22.00
2023-05-01T09:59:21.612Z,22.21
2023-05-01T10:01:50.501Z,21.79
2023-05-01T10:04:18.296Z,22.34
2023-05-01T10:06:45.403Z,22.19
2023-05-01T10:09:17.763Z,22.32
2023-05-01T10:11:56.230Z,22.29
2023-05-01T10:14:28.237Z,21.98
2023-05-01T10:16:56.970Z,21.83
2023-05-01T10:19:23.733Z,21.65
2023-05-01T10:21:50.613Z,22.16
2023-05-01T10:24:18.757Z,21.81
2023-05-01T10:26:48.997Z,22.31
2023-05-01T10:29:16.021Z,22.64
2023-05-01T10:31:43.353Z,22.63
2023-05-01T10:34:16.849Z,22.19
2023-05-01T10:36:54.862Z,22.20
2023-05-01T10:39:35.799Z,22.59
2023-05-01T10:42:17.821Z,22.37
2023-05-01T10:44:46.390Z,22.62
2023-05-01T10:47:25.633Z,22.76
2023-05-01T10:50:09.754Z,22.47
2023-05-01T10:53:11.526Z,22.36
2023-05-01T10:55:51.179Z,22.63
2023-05-01T10:58:36.853Z,22.34
2023-05-01T11:01:30.077Z,22.67
2023-05-01T11:03:58.559Z,23.15
2023-05-01T11:06:26.146Z,23.22
2023-05-01T11:08:53.497Z,23.12
2023-05-01T11:11:20.165Z,23.45
2023-05-01T11:13:59.453Z,22.86
2023-05-01T11:16:44.291Z,22.72
2023-05-01T11:19:12.257Z,22.40
2023-05-01T11:21:41.957Z,22.80
2023-05-01T11:27:05.183Z,21.85
2023-05-01T11:29:35.041Z,22.38
2023-05-01T11:32:01.958Z,22.83
2023-05-01T11:34:37.937Z,21.73
2023-05-01T11:37:04.712Z,22.47
2023-05-01T11:39:31.690Z,21.89
2023-05-01T11:42:09.213Z,22.19
2023-05-01T11:44:35.974Z,22.34
2023-05-01T11:47:02.651Z,22.78
2023-05-01T11:49:29.674Z,22.85
2023-05-01T11:51:59.532Z,23.11
2023-05-01T11:54:27.188Z,22.15
2023-05-01T11:57:01.219Z,22.33
2023-05-01T11:59:28.403Z,22.35
2023-05-01T12:01:55.331Z,23.20
2023-05-01T12:04:31.910Z,22.98
2023-05-01T12:06:59.249Z,23.03
2023-05-01T12:09:29.951Z,23.34
2023-05-01T12:11:59.733Z,22.88
2023-05-01T12:14:26.667Z,22.25
2023-05-01T12:16:53.792Z,22.46
2023-05-01T12:19:23.984Z,22.61
2023-05-01T12:22:06.072Z,22.28
2023-05-01T12:24:32.911Z,22.81
2023-05-01T12:27:03.702Z,22.04
2023-05-01T12:29:44.819Z,22.82
2023-05-01T12:32:11.802Z,23.30
2023-05-01T12:34:39.156Z,23.28
2023-05-01T12:37:06.139Z,23.43
2023-05-01T12:39:42.301Z,23.42
2023-05-01T12:42:14.478Z,22.94
2023-05-01T12:44:41.517Z,23.05
2023-05-01T12:47:09.275Z,23.45
2023-05-01T12:49:37.483Z,23.99
2023-05-01T12:52:07.564Z,24.19
2023-05-01T12:54:39.202Z,24.78
2023-05-01T12:57:14.766Z,24.33
2023-05-01T12:59:44.321Z,23.46
2023-05-01T13:02:15.283Z,23.06
2023-05-01T13:04:43.842Z,23.78
2023-05-01T13:07:18.296Z,23.52
2023-05-01T13:09:56.243Z,23.63
2023-05-01T13:12:24.385Z,23.72
2023-05-01T13:14:51.854Z,24.75
2023-05-01T13:17:30.810Z,24.79
2023-05-01T13:20:04.936Z,25.07
2023-05-01T13:22:36.258Z,25.73
2023-05-01T13:25:05.342Z,24.09
2023-05-01T13:27:32.620Z,25.29
2023-05-01T13:30:00.683Z,25.46
2023-05-01T13:32:28.281Z,24.28
2023-05-01T13:34:56.182Z,25.07
2023-05-01T13:37:23.178Z,25.09
2023-05-01T13:39:49.778Z,24.78
2023-05-01T13:42:26.224Z,24.53
2023-05-01T13:44:57.814Z,24.43
2023-05-01T13:47:27.089Z,24.59
2023-05-01T13:49:54.468Z,23.93
2023-05-01T13:52:21.447Z,23.67
2023-05-01T13:57:43.402Z,24.50
2023-05-01T14:00:17.749Z,24.33
2023-05-01T14:02:48.432Z,24.46
2023-05-01T14:05:16.377Z,23.40
2023-05-01T14:07:53.882Z,24.05
2023-05-01T14:10:23.220Z,24.16
2023-05-01T14:12:50.995Z,24.04
2023-05-01T14:15:17.870Z,24.62
2023-05-01T14:17:44.935Z,24.28
2023-05-01T14:20:11.984Z,24.00
2023-05-01T14:22:47.480Z,24.17
2023-05-01T14:25:24.539Z,23.62
2023-05-01T14:27:52.664Z,23.14
2023-05-01T14:30:40.215Z,22.31
2023-05-01T14:33:11.869Z,21.94
2023-05-01T14:35:50.695Z,21.31
2023-05-01T14:38:19.198Z,21.29
2023-05-01T14:40:46.177Z,21.04
2023-05-01T14:43:20.496Z,20.72
2023-05-01T14:45:49.240Z,20.77
2023-05-01T14:48:23.477Z,20.99
2023-05-01T14:50:51.326Z,21.01
2023-05-01T14:53:18.125Z,21.04
2023-05-01T14:55:44.828Z,20.83
2023-05-01T14:58:11.476Z,20.64
2023-05-01T15:00:38.208Z,20.68
2023-05-01T15:03:04.982Z,20.59
2023-05-01T15:05:31.738Z,20.51
2023-05-01T15:08:00.533Z,20.55
2023-05-01T15:10:28.989Z,20.69
2023-05-01T15:12:55.852Z,20.72
2023-05-01T15:15:22.551Z,20.75
2023-05-01T15:17:49.300Z,20.65
2023-05-01T15:20:16.011Z,20.48
2023-05-01T15:22:42.624Z,20.44
2023-05-01T15:25:10.980Z,20.38
2023-05-01T15:27:37.981Z,20.59
2023-05-01T15:30:05.343Z,20.56
2023-05-01T15:32:32.319Z,20.42
2023-05-01T15:34:59.287Z,20.51
2023-05-01T15:37:26.214Z,20.52
2023-05-01T15:39:53.293Z,20.56
2023-05-01T15:42:20.413Z,20.35
2023-05-01T15:44:47.930Z,20.16
2023-05-01T15:47:15.006Z,20.24
2023-05-01T15:49:41.824Z,20.22
2023-05-01T15:52:08.540Z,20.14
2023-05-01T15:54:35.441Z,20.16
2023-05-01T15:57:03.212Z,20.17
2023-05-01T15:59:31.013Z,20.05
2023-05-01T16:01:57.825Z,20.01
2023-05-01T16:04:24.902Z,19.83
2023-05-01T16:06:51.803Z,20.07
2023-05-01T16:09:19.355Z,19.85
2023-05-01T16:11:46.145Z,19.74
2023-05-01T16:14:15.731Z,19.84
2023-05-01T16:16:43.490Z,19.83
2023-05-01T16:19:15.792Z,19.88
2023-05-01T16:21:42.559Z,19.89
2023-05-01T16:24:10.510Z,19.85
2023-05-01T16:26:37.696Z,19.73
2023-05-01T16:29:08.349Z,19.56
2023-05-01T16:31:39.374Z,19.41
2023-05-01T16:34:07.220Z,19.08
2023-05-01T16:36:42.514Z,18.89
2023-05-01T16:39:14.273Z,18.83
2023-05-01T16:41:46.051Z,18.68
2023-05-01T16:44:17.215Z,18.38
2023-05-01T16:46:55.522Z,18.59
2023-05-01T16:49:29.595Z,18.54
2023-05-01T16:51:57.424Z,18.49
2023-05-01T16:54:32.020Z,18.39
2023-05-01T16:56:59.417Z,18.22
2023-05-01T16:59:28.156Z,18.24
2023-05-01T17:01:54.995Z,18.03
2023-05-01T17:04:22.074Z,18.13
2023-05-01T17:06:49.215Z,17.96
2023-05-01T17:09:16.034Z,17.71
2023-05-01T17:11:43.393Z,17.68
2023-05-01T17:14:10.148Z,17.44
2023-05-01T17:16:36.945Z,17.32
2023-05-01T17:19:08.932Z,17.25
2023-05-01T17:21:36.235Z,17.04
2023-05-01T17:24:03.005Z,16.77
2023-05-01T17:26:29.670Z,16.24
2023-05-01T17:28:56.318Z,16.01
2023-05-01T17:31:23.168Z,15.96
2023-05-01T17:33:50.026Z,16.15
2023-05-01T17:36:16.743Z,16.04
2023-05-01T17:38:43.871Z,15.84
2023-05-01T17:41:10.719Z,15.71
2023-05-01T17:43:37.591Z,15.42
2023-05-01T17:46:05.137Z,15.31
2023-05-01T17:48:32.113Z,15.13
2023-05-01T17:50:58.961Z,15.18
2023-05-01T17:53:26.090Z,15.24
2023-05-01T17:55:53.018Z,15.28
2023-05-01T17:58:20.668Z,15.12
2023-05-01T18:00:47.845Z,15.30
2023-05-01T18:03:14.756Z,15.15
2023-05-01T18:05:41.591Z,14.87
2023-05-01T18:08:08.288Z,14.66
2023-05-01T18:10:35.016Z,14.65
2023-05-01T18:13:01.881Z,14.68
2023-05-01T18:15:28.652Z,14.61
2023-05-01T18:17:55.511Z,14.51
2023-05-01T18:20:22.547Z,14.29
2023-05-01T18:22:50.073Z,14.35
2023-05-01T18:25:17.338Z,14.20
2023-05-01T18:27:45.281Z,14.28
2023-05-01T18:30:12.173Z,14.23
2023-05-01T18:32:47.622Z,14.23
2023-05-01T18:35:17.042Z,14.02
2023-05-01T18:37:44.258Z,13.99
2023-05-01T18:40:11.655Z,13.86
2023-05-01T18:42:41.358Z,13.50
2023-05-01T18:45:09.998Z,13.37
2023-05-01T18:47:36.853Z,13.35
2023-05-01T18:50:04.201Z,13.36
2023-05-01T18:52:31.206Z,13.56
2023-05-01T18:54:57.986Z,13.60
2023-05-01T18:57:24.664Z,13.51
2023-05-01T18:59:51.466Z,13.45
2023-05-01T19:02:18.143Z,13.12
2023-05-01T19:04:56.813Z,13.04
2023-05-01T19:07:26.043Z,13.01
2023-05-01T19:09:52.876Z,12.89
2023-05-01T19:12:19.550Z,12.68
2023-05-01T19:14:46.296Z,12.55
2023-05-01T19:17:13.076Z,12.56
2023-05-01T19:19:39.783Z,12.55
2023-05-01T19:22:07.428Z,12.46
2023-05-01T19:24:34.152Z,12.38
2023-05-01T19:27:03.448Z,12.42
2023-05-01T19:29:33.363Z,12.59
2023-05-01T19:32:00.421Z,12.77
2023-05-01T19:34:27.882Z,12.84
2023-05-01T19:36:57.139Z,12.69
2023-05-01T19:39:24.017Z,12.53
2023-05-01T19:41:51.078Z,12.47
2023-05-01T19:44:18.424Z,12.47
2023-05-01T19:46:45.181Z,12.28
2023-05-01T19:49:12.489Z,12.29
2023-05-01T19:51:39.139Z,12.18
2023-05-01T19:54:05.726Z,12.10
2023-05-01T19:56:32.329Z,12.15
2023-05-01T19:58:59.020Z,12.12
2023-05-01T20:01:25.711Z,12.06
2023-05-01T20:03:52.633Z,12.10
2023-05-01T20:06:19.383Z,11.98
2023-05-01T20:08:47.228Z,11.97
2023-05-01T20:11:14.219Z,11.98
2023-05-01T20:13:41.310Z,12.07
2023-05-01T20:16:09.717Z,11.92
2023-05-01T20:18:36.597Z,11.77
2023-05-01T20:21:03.444Z,11.89
2023-05-01T20:23:30.230Z,12.01
2023-05-01T20:25:56.968Z,12.06
2023-05-01T20:28:23.633Z,12.06
2023-05-01T20:30:50.815Z,12.11
2023-05-01T20:33:18.067Z,12.21
2023-05-01T20:35:45.407Z,12.16
2023-05-01T20:38:12.201Z,12.15
2023-05-01T20:40:40.352Z,12.24
2023-05-01T20:43:07.359Z,12.08
2023-05-01T20:45:34.386Z,12.17
2023-05-01T20:48:01.951Z,12.21
2023-05-01T20:50:29.390Z,12.16
2023-05-01T20:52:56.397Z,12.22
2023-05-01T20:55:23.975Z,12.22
2023-05-01T20:57:50.760Z,12.17
2023-05-01T21:00:17.553Z,12.08
2023-05-01T21:02:45.116Z,11.86
2023-05-01T21:05:13.840Z,11.97
2023-05-01T21:07:40.951Z,12.01
2023-05-01T21:10:10.448Z,11.84
2023-05-01T21:12:37.637Z,11.84
2023-05-01T21:15:04.825Z,11.73
2023-05-01T21:17:33.238Z,11.71
2023-05-01T21:20:00.314Z,11.77
2023-05-01T21:22:27.820Z,11.78
2023-05-01T21:24:57.037Z,11.65
2023-05-01T21:27:24.987Z,11.41
2023-05-01T21:29:59.698Z,11.41
2023-05-01T21:32:32.760Z,11.38
2023-05-01T21:35:00.635Z,11.29
2023-05-01T21:37:27.756Z,11.42
2023-05-01T21:39:54.608Z,11.19
2023-05-01T21:42:21.330Z,11.16
2023-05-01T21:44:48.178Z,11.17
2023-05-01T21:47:15.930Z,10.98
2023-05-01T21:49:42.750Z,10.75
2023-05-01T21:52:09.466Z,10.69
2023-05-01T21:54:37.117Z,10.58
2023-05-01T21:57:08.078Z,10.50
2023-05-01T21:59:39.247Z,10.42
2023-05-01T22:02:11.113Z,10.55
2023-05-01T22:04:38.837Z,10.65
2023-05-01T22:07:06.432Z,10.56
2023-05-01T22:09:33.302Z,10.66
2023-05-01T22:12:00.169Z,10.63
2023-05-01T22:14:33.635Z,10.78
2023-05-01T22:17:06.893Z,10.80
2023-05-01T22:19:33.642Z,10.87
2023-05-01T22:22:00.567Z,11.00
2023-05-01T22:24:27.205Z,10.94
2023-05-01T22:26:53.874Z,10.92
2023-05-01T22:29:20.560Z,11.00
2023-05-01T22:31:47.367Z,10.99
2023-05-01T22:34:14.210Z,11.00
2023-05-01T22:36:42.206Z,10.97
2023-05-01T22:39:08.991Z,10.98
2023-05-01T22:41:35.638Z,10.86
2023-05-01T22:44:02.309Z,10.68
2023-05-01T22:46:29.094Z,10.72
2023-05-01T22:48:56.009Z,10.61
2023-05-01T22:51:22.651Z,10.75
2023-05-01T22:53:49.716Z,10.85
2023-05-01T22:56:16.457Z,10.81
2023-05-01T22:58:43.129Z,10.96
2023-05-01T23:01:09.871Z,11.08
2023-05-01T23:03:38.778Z,11.19
2023-05-01T23:06:06.510Z,11.27
2023-05-01T23:08:36.038Z,11.39
2023-05-01T23:11:04.604Z,11.37
2023-05-01T23:13:32.299Z,11.38
2023-05-01T23:15:59.804Z,11.30
2023-05-01T23:18:33.379Z,11.30
2023-05-01T23:21:00.212Z,11.34
2023-05-01T23:23:31.127Z,11.37
2023-05-01T23:25:58.097Z,11.47
2023-05-01T23:28:26.240Z,11.39
2023-05-01T23:30:57.203Z,11.32
2023-05-01T23:33:31.808Z,11.30
2023-05-01T23:35:58.542Z,11.40
2023-05-01T23:38:25.276Z,11.46
2023-05-01T23:40:52.104Z,11.55
2023-05-01T23:43:20.236Z,11.64
2023-05-01T23:45:47.062Z,11.54
2023-05-01T23:48:14.329Z,11.61
2023-05-01T23:50:41.177Z,11.56
2023-05-01T23:53:08.856Z,11.58
2023-05-01T23:55:36.299Z,11.42
2023-05-01T23:58:03.212Z,11.52
